Opelika, AL

7:32 PM CST on November 26, 2014 (GMT -0600)
Opelika | Change Station
CLOSE
Current Station
Personal Weather Station
Location: Opelika, AL
Elevation: 785 ft
Nearby Weather Stations

Elev 785 ft 32.66 °N, 85.34 °W | Updated 6 seconds ago

Clear
Clear
47.8 °F
Feels Like 48 °F
N
0.0
Wind Variable Wind from North
Gusts 0.0 mph

Today
High -- | Low -- °F
--% Chance of Precip.
Yesterday
High -- | Low -- °F
Precip. -- in
6:21 AM 4:36 PM
Waxing Crescent, 24% visible
Pressure 30.14 in
Visibility 10.0 miles
Clouds Clear
Windchill 48 °F
Dew Point 26 °F
Humidity 42%
Rainfall 0.00 in
Snow Depth Not available.
UV 0 out of 12
Pollen .30 out of 12
Air Quality Not available.
Flu Activity Not available.
METAR KAUO 270115Z AUTO 20005KT 10SM CLR 07/M03 A3014 RMK AO1

More Conditions Fewer Conditions

Pressure 30.14 in
Visibility 10.0 miles
Clouds Clear
Windchill 48 °F
Dew Point 26 °F
Humidity 42%
Rainfall 0.00 in
Snow Depth Not available.
UV 0 out of 12
Pollen .30 out of 12
Air Quality Not available.
Flu Activity Not available.
METAR KAUO 270115Z AUTO 20005KT 10SM CLR 07/M03 A3014 RMK AO1

More Conditions Fewer Conditions

10-Day Weather Forecast

Almanac

Astronomy

Nov. 26, 2014 Rise Set
Actual Time
Civil Twilight
Nautical Twilight
Astronomical Twilight
Moon
Length of Visible Light
Length of Day
Tomorrow will be .
, % of the Moon is Illuminated

Today's Extremes

State Highs State Lows

Community

WunderPhotos

Upload Photos

1,773,938 photos uploaded!

WunderBlogs® & News

Nearby

Air Quality

  Air Quality AQ Index Pollutant
Not available.

Snow Depth

Station Depth Elevation

Earthquake Activity

City Distance Mag. Time & Date
Minimum magnitude displayed is 2.5.

Coastal Water Temperatures

Place Temperature

Nearby Weather Stations